sensor_id;sensor_type;location;lat;lon;timestamp;pressure;altitude;pressure_sealevel;temperature;humidity
44765;BME280;30484;52.382;5.260;2023-06-19T00:02:29;100828.59;;;25.74;100.00
44765;BME280;30484;52.382;5.260;2023-06-19T00:05:01;100829.91;;;25.22;100.00
44765;BME280;30484;52.382;5.260;2023-06-19T00:07:31;100827.50;;;25.27;100.00
44765;BME280;30484;52.382;5.260;2023-06-19T00:10:06;100828.72;;;25.16;100.00
44765;BME280;30484;52.382;5.260;2023-06-19T00:12:38;100838.47;;;25.36;100.00
44765;BME280;30484;52.382;5.260;2023-06-19T00:15:09;100830.44;;;25.18;100.00
44765;BME280;30484;52.382;5.260;2023-06-19T00:17:42;100834.03;;;25.10;100.00
44765;BME280;30484;52.382;5.260;2023-06-19T00:20:12;100824.06;;;25.50;100.00
44765;BME280;30484;52.382;5.260;2023-06-19T00:22:45;100816.94;;;25.24;100.00
44765;BME280;30484;52.382;5.260;2023-06-19T00:25:21;100811.41;;;25.49;100.00
44765;BME280;30484;52.382;5.260;2023-06-19T00:27:53;100822.94;;;25.03;100.00
44765;BME280;30484;52.382;5.260;2023-06-19T00:30:26;100834.00;;;25.18;100.00
44765;BME280;30484;52.382;5.260;2023-06-19T00:33:03;100830.25;;;25.27;100.00
44765;BME280;30484;52.382;5.260;2023-06-19T00:35:35;100839.66;;;25.41;100.00
44765;BME280;30484;52.382;5.260;2023-06-19T00:38:07;100841.19;;;25.27;100.00
44765;BME280;30484;52.382;5.260;2023-06-19T00:40:39;100843.63;;;24.97;100.00
44765;BME280;30484;52.382;5.260;2023-06-19T00:43:09;100838.44;;;25.27;100.00
44765;BME280;30484;52.382;5.260;2023-06-19T00:45:39;100836.72;;;25.26;100.00
44765;BME280;30484;52.382;5.260;2023-06-19T00:48:14;100834.53;;;25.13;100.00
44765;BME280;30484;52.382;5.260;2023-06-19T00:50:46;100836.78;;;25.10;100.00
44765;BME280;30484;52.382;5.260;2023-06-19T00:53:23;100839.34;;;24.87;100.00
44765;BME280;30484;52.382;5.260;2023-06-19T00:56:03;100835.53;;;25.45;100.00
44765;BME280;30484;52.382;5.260;2023-06-19T00:58:36;100834.34;;;25.15;100.00
44765;BME280;30484;52.382;5.260;2023-06-19T01:01:07;100835.06;;;25.17;100.00
44765;BME280;30484;52.382;5.260;2023-06-19T01:03:40;100844.56;;;25.54;100.00
44765;BME280;30484;52.382;5.260;2023-06-19T01:06:15;100840.53;;;25.01;100.00
44765;BME280;30484;52.382;5.260;2023-06-19T01:08:58;100831.97;;;24.95;100.00
44765;BME280;30484;52.382;5.260;2023-06-19T01:11:37;100828.19;;;25.38;100.00
44765;BME280;30484;52.382;5.260;2023-06-19T01:14:15;100847.56;;;24.78;100.00
44765;BME280;30484;52.382;5.260;2023-06-19T01:16:49;100837.44;;;24.95;100.00
44765;BME280;30484;52.382;5.260;2023-06-19T01:19:23;100843.44;;;25.15;100.00
44765;BME280;30484;52.382;5.260;2023-06-19T01:21:55;100844.31;;;24.91;100.00
44765;BME280;30484;52.382;5.260;2023-06-19T01:24:26;100860.34;;;24.78;100.00
44765;BME280;30484;52.382;5.260;2023-06-19T01:26:57;100854.88;;;24.70;100.00
44765;BME280;30484;52.382;5.260;2023-06-19T01:29:30;100861.38;;;24.60;100.00
44765;BME280;30484;52.382;5.260;2023-06-19T01:32:06;100856.22;;;24.57;100.00
44765;BME280;30484;52.382;5.260;2023-06-19T01:34:41;100864.38;;;24.49;100.00
44765;BME280;30484;52.382;5.260;2023-06-19T01:37:12;100864.56;;;24.47;100.00
44765;BME280;30484;52.382;5.260;2023-06-19T01:39:45;100864.91;;;23.93;100.00
44765;BME280;30484;52.382;5.260;2023-06-19T01:42:16;100873.00;;;24.11;100.00
44765;BME280;30484;52.382;5.260;2023-06-19T01:44:50;100869.63;;;23.49;100.00
44765;BME280;30484;52.382;5.260;2023-06-19T01:47:29;100875.28;;;23.90;100.00
44765;BME280;30484;52.382;5.260;2023-06-19T01:50:07;100889.88;;;23.46;100.00
44765;BME280;30484;52.382;5.260;2023-06-19T01:52:37;100883.38;;;23.47;100.00
44765;BME280;30484;52.382;5.260;2023-06-19T01:55:13;100895.41;;;23.63;100.00
44765;BME280;30484;52.382;5.260;2023-06-19T01:57:45;100898.94;;;23.29;100.00
44765;BME280;30484;52.382;5.260;2023-06-19T02:00:18;100894.28;;;23.47;100.00
44765;BME280;30484;52.382;5.260;2023-06-19T02:02:54;100898.31;;;22.99;100.00
44765;BME280;30484;52.382;5.260;2023-06-19T02:05:27;100896.88;;;23.49;100.00
44765;BME280;30484;52.382;5.260;2023-06-19T02:08:04;100885.19;;;23.38;100.00
44765;BME280;30484;52.382;5.260;2023-06-19T02:10:39;100887.28;;;23.71;100.00
44765;BME280;30484;52.382;5.260;2023-06-19T02:13:10;100884.69;;;23.35;100.00
44765;BME280;30484;52.382;5.260;2023-06-19T02:15:43;100877.69;;;23.32;100.00
44765;BME280;30484;52.382;5.260;2023-06-19T02:18:15;100884.31;;;23.56;100.00
44765;BME280;30484;52.382;5.260;2023-06-19T02:20:47;100888.75;;;23.31;100.00
44765;BME280;30484;52.382;5.260;2023-06-19T02:23:16;100892.94;;;23.43;100.00
44765;BME280;30484;52.382;5.260;2023-06-19T02:25:50;100892.59;;;23.02;100.00
44765;BME280;30484;52.382;5.260;2023-06-19T02:28:20;100894.16;;;23.49;100.00
44765;BME280;30484;52.382;5.260;2023-06-19T02:30:59;100893.97;;;23.06;100.00
44765;BME280;30484;52.382;5.260;2023-06-19T02:33:30;100901.63;;;23.20;100.00
44765;BME280;30484;52.382;5.260;2023-06-19T02:36:06;100897.41;;;23.26;100.00
44765;BME280;30484;52.382;5.260;2023-06-19T02:38:36;100898.41;;;23.51;100.00
44765;BME280;30484;52.382;5.260;2023-06-19T02:41:11;100897.69;;;23.23;100.00
44765;BME280;30484;52.382;5.260;2023-06-19T02:43:45;100901.94;;;23.43;100.00
44765;BME280;30484;52.382;5.260;2023-06-19T02:46:20;100907.47;;;23.52;100.00
44765;BME280;30484;52.382;5.260;2023-06-19T02:48:52;100900.13;;;23.26;100.00
44765;BME280;30484;52.382;5.260;2023-06-19T02:51:22;100898.09;;;23.54;100.00
44765;BME280;30484;52.382;5.260;2023-06-19T02:53:57;100886.28;;;23.19;100.00
44765;BME280;30484;52.382;5.260;2023-06-19T02:56:31;100901.63;;;23.20;100.00
44765;BME280;30484;52.382;5.260;2023-06-19T02:59:01;100913.63;;;23.36;100.00
44765;BME280;30484;52.382;5.260;2023-06-19T03:01:33;100918.91;;;23.11;100.00
44765;BME280;30484;52.382;5.260;2023-06-19T03:04:06;100920.91;;;23.09;100.00
44765;BME280;30484;52.382;5.260;2023-06-19T03:06:40;100924.59;;;23.18;100.00
44765;BME280;30484;52.382;5.260;2023-06-19T03:09:12;100916.56;;;23.16;100.00
44765;BME280;30484;52.382;5.260;2023-06-19T03:11:45;100909.13;;;23.44;100.00
44765;BME280;30484;52.382;5.260;2023-06-19T03:14:15;100912.19;;;23.23;100.00
44765;BME280;30484;52.382;5.260;2023-06-19T03:16:46;100909.41;;;23.15;100.00
44765;BME280;30484;52.382;5.260;2023-06-19T03:19:20;100910.16;;;23.25;100.00
44765;BME280;30484;52.382;5.260;2023-06-19T03:21:51;100910.47;;;23.22;100.00
44765;BME280;30484;52.382;5.260;2023-06-19T03:24:24;100906.16;;;23.38;100.00
44765;BME280;30484;52.382;5.260;2023-06-19T03:26:57;100912.91;;;23.07;100.00
44765;BME280;30484;52.382;5.260;2023-06-19T03:29:29;100919.84;;;23.02;100.00
44765;BME280;30484;52.382;5.260;2023-06-19T03:31:59;100923.47;;;23.29;100.00
44765;BME280;30484;52.382;5.260;2023-06-19T03:34:29;100919.97;;;23.18;100.00
44765;BME280;30484;52.382;5.260;2023-06-19T03:36:58;100929.47;;;23.14;100.00
44765;BME280;30484;52.382;5.260;2023-06-19T03:39:31;100931.03;;;23.35;100.00
44765;BME280;30484;52.382;5.260;2023-06-19T03:42:09;100928.31;;;23.17;100.00
44765;BME280;30484;52.382;5.260;2023-06-19T03:44:54;100929.22;;;22.71;100.00
44765;BME280;30484;52.382;5.260;2023-06-19T03:47:25;100930.97;;;22.90;100.00
44765;BME280;30484;52.382;5.260;2023-06-19T03:49:56;100918.78;;;23.39;100.00
44765;BME280;30484;52.382;5.260;2023-06-19T03:52:46;100946.44;;;23.08;100.00
44765;BME280;30484;52.382;5.260;2023-06-19T03:55:23;100937.00;;;22.84;100.00
44765;BME280;30484;52.382;5.260;2023-06-19T03:58:01;100950.34;;;22.87;100.00
44765;BME280;30484;52.382;5.260;2023-06-19T04:00:32;100946.81;;;22.77;100.00
44765;BME280;30484;52.382;5.260;2023-06-19T04:03:03;100954.25;;;22.85;100.00
44765;BME280;30484;52.382;5.260;2023-06-19T04:05:38;100949.75;;;23.12;100.00
44765;BME280;30484;52.382;5.260;2023-06-19T04:08:12;100957.34;;;23.08;100.00
44765;BME280;30484;52.382;5.260;2023-06-19T04:10:43;100967.72;;;23.22;100.00
44765;BME280;30484;52.382;5.260;2023-06-19T04:13:14;100965.13;;;23.03;100.00
44765;BME280;30484;52.382;5.260;2023-06-19T04:15:45;100975.13;;;23.12;100.00
44765;BME280;30484;52.382;5.260;2023-06-19T04:18:20;100984.25;;;22.93;100.00
44765;BME280;30484;52.382;5.260;2023-06-19T04:20:51;100987.88;;;22.93;100.00
44765;BME280;30484;52.382;5.260;2023-06-19T04:23:25;100992.66;;;22.64;100.00
44765;BME280;30484;52.382;5.260;2023-06-19T04:25:55;101000.97;;;22.62;100.00
44765;BME280;30484;52.382;5.260;2023-06-19T04:28:41;101012.72;;;22.63;100.00
44765;BME280;30484;52.382;5.260;2023-06-19T04:31:24;101023.41;;;22.46;100.00
44765;BME280;30484;52.382;5.260;2023-06-19T04:33:55;101032.28;;;22.48;100.00
44765;BME280;30484;52.382;5.260;2023-06-19T04:36:27;101031.31;;;22.30;100.00
44765;BME280;30484;52.382;5.260;2023-06-19T04:39:03;101037.06;;;22.36;100.00
44765;BME280;30484;52.382;5.260;2023-06-19T04:41:35;101044.28;;;22.55;100.00
44765;BME280;30484;52.382;5.260;2023-06-19T04:44:25;101036.44;;;22.05;100.00
44765;BME280;30484;52.382;5.260;2023-06-19T04:47:00;101051.88;;;22.04;100.00
44765;BME280;30484;52.382;5.260;2023-06-19T04:49:32;101056.66;;;22.30;100.00
44765;BME280;30484;52.382;5.260;2023-06-19T04:52:03;101051.34;;;21.81;100.00
44765;BME280;30484;52.382;5.260;2023-06-19T04:54:33;101056.75;;;22.11;100.00
44765;BME280;30484;52.382;5.260;2023-06-19T04:57:06;101058.75;;;21.99;100.00
44765;BME280;30484;52.382;5.260;2023-06-19T04:59:41;101072.78;;;22.14;100.00
44765;BME280;30484;52.382;5.260;2023-06-19T05:02:15;101064.59;;;22.23;100.00
44765;BME280;30484;52.382;5.260;2023-06-19T05:04:48;101078.03;;;22.25;100.00
44765;BME280;30484;52.382;5.260;2023-06-19T05:07:18;101083.63;;;22.23;100.00
44765;BME280;30484;52.382;5.260;2023-06-19T05:09:48;101077.91;;;22.27;100.00
44765;BME280;30484;52.382;5.260;2023-06-19T05:12:19;101083.63;;;22.23;100.00
44765;BME280;30484;52.382;5.260;2023-06-19T05:14:52;101086.13;;;21.87;100.00
44765;BME280;30484;52.382;5.260;2023-06-19T05:17:22;101084.75;;;22.40;100.00
44765;BME280;30484;52.382;5.260;2023-06-19T05:19:57;101100.00;;;22.04;100.00
44765;BME280;30484;52.382;5.260;2023-06-19T05:22:52;101103.41;;;22.06;100.00
44765;BME280;30484;52.382;5.260;2023-06-19T05:25:23;101095.69;;;22.11;100.00
44765;BME280;30484;52.382;5.260;2023-06-19T05:27:55;101093.13;;;22.57;100.00
44765;BME280;30484;52.382;5.260;2023-06-19T05:30:30;101099.69;;;22.36;100.00
44765;BME280;30484;52.382;5.260;2023-06-19T05:33:03;101108.28;;;22.22;100.00
44765;BME280;30484;52.382;5.260;2023-06-19T05:35:34;101109.41;;;22.39;100.00
44765;BME280;30484;52.382;5.260;2023-06-19T05:38:06;101118.44;;;22.10;100.00
44765;BME280;30484;52.382;5.260;2023-06-19T05:40:37;101109.41;;;22.39;100.00
44765;BME280;30484;52.382;5.260;2023-06-19T05:43:08;101110.34;;;21.91;100.00
44765;BME280;30484;52.382;5.260;2023-06-19T05:45:40;101118.16;;;22.13;100.00
44765;BME280;30484;52.382;5.260;2023-06-19T05:48:12;101123.34;;;22.64;100.00
44765;BME280;30484;52.382;5.260;2023-06-19T05:50:47;101118.53;;;22.57;100.00
44765;BME280;30484;52.382;5.260;2023-06-19T05:53:18;101124.47;;;22.23;100.00
44765;BME280;30484;52.382;5.260;2023-06-19T05:55:51;101127.44;;;22.40;100.00
44765;BME280;30484;52.382;5.260;2023-06-19T05:58:23;101138.47;;;22.19;100.00
44765;BME280;30484;52.382;5.260;2023-06-19T06:00:57;101130.88;;;22.42;100.00
44765;BME280;30484;52.382;5.260;2023-06-19T06:03:27;101136.81;;;22.65;100.00
44765;BME280;30484;52.382;5.260;2023-06-19T06:05:59;101132.44;;;22.82;100.00
44765;BME280;30484;52.382;5.260;2023-06-19T06:08:33;101141.78;;;22.42;100.00
44765;BME280;30484;52.382;5.260;2023-06-19T06:11:05;101146.97;;;22.73;100.00
44765;BME280;30484;52.382;5.260;2023-06-19T06:13:40;101149.69;;;22.73;100.00
44765;BME280;30484;52.382;5.260;2023-06-19T06:16:16;101148.03;;;22.52;100.00
44765;BME280;30484;52.382;5.260;2023-06-19T06:21:24;101160.19;;;22.68;100.00
44765;BME280;30484;52.382;5.260;2023-06-19T06:23:55;101164.44;;;22.33;100.00
44765;BME280;30484;52.382;5.260;2023-06-19T06:26:25;101168.69;;;22.55;100.00
44765;BME280;30484;52.382;5.260;2023-06-19T06:28:57;101170.16;;;22.39;100.00
44765;BME280;30484;52.382;5.260;2023-06-19T06:31:31;101160.03;;;22.69;100.00
44765;BME280;30484;52.382;5.260;2023-06-19T06:34:01;101176.34;;;22.79;100.00
44765;BME280;30484;52.382;5.260;2023-06-19T06:36:32;101179.03;;;22.89;100.00
44765;BME280;30484;52.382;5.260;2023-06-19T06:39:21;101176.91;;;22.73;100.00
44765;BME280;30484;52.382;5.260;2023-06-19T06:41:54;101174.97;;;22.55;100.00
44765;BME280;30484;52.382;5.260;2023-06-19T06:44:27;101180.03;;;22.88;100.00
44765;BME280;30484;52.382;5.260;2023-06-19T06:46:59;101188.00;;;22.99;100.00
44765;BME280;30484;52.382;5.260;2023-06-19T06:49:32;101189.09;;;23.44;100.00
44765;BME280;30484;52.382;5.260;2023-06-19T06:52:03;101187.56;;;23.04;100.00
44765;BME280;30484;52.382;5.260;2023-06-19T06:54:36;101188.34;;;22.86;100.00
44765;BME280;30484;52.382;5.260;2023-06-19T06:57:07;101206.72;;;22.74;100.00
44765;BME280;30484;52.382;5.260;2023-06-19T06:59:38;101199.91;;;22.61;100.00
44765;BME280;30484;52.382;5.260;2023-06-19T07:02:12;101203.47;;;22.71;100.00
44765;BME280;30484;52.382;5.260;2023-06-19T07:04:43;101202.75;;;23.16;100.00
44765;BME280;30484;52.382;5.260;2023-06-19T07:07:15;101203.28;;;22.82;100.00
44765;BME280;30484;52.382;5.260;2023-06-19T07:09:50;101204.59;;;23.16;100.00
44765;BME280;30484;52.382;5.260;2023-06-19T07:12:23;101221.16;;;22.95;100.00
44765;BME280;30484;52.382;5.260;2023-06-19T07:14:58;101223.63;;;22.88;100.00
44765;BME280;30484;52.382;5.260;2023-06-19T07:17:30;101214.94;;;23.12;100.00
44765;BME280;30484;52.382;5.260;2023-06-19T07:20:09;101238.41;;;22.75;100.00
44765;BME280;30484;52.382;5.260;2023-06-19T07:22:39;101238.19;;;22.59;100.00
44765;BME280;30484;52.382;5.260;2023-06-19T07:25:12;101245.91;;;22.64;100.00
44765;BME280;30484;52.382;5.260;2023-06-19T07:27:42;101256.84;;;23.01;100.00
44765;BME280;30484;52.382;5.260;2023-06-19T07:30:18;101261.25;;;22.65;100.00
44765;BME280;30484;52.382;5.260;2023-06-19T07:32:57;101267.75;;;22.91;100.00
44765;BME280;30484;52.382;5.260;2023-06-19T07:35:33;101264.63;;;22.86;100.00
44765;BME280;30484;52.382;5.260;2023-06-19T07:38:09;101267.56;;;23.22;100.00
44765;BME280;30484;52.382;5.260;2023-06-19T07:41:04;101268.63;;;23.12;100.00
44765;BME280;30484;52.382;5.260;2023-06-19T07:43:41;101270.09;;;22.77;100.00
44765;BME280;30484;52.382;5.260;2023-06-19T07:46:13;101272.47;;;22.99;100.00
44765;BME280;30484;52.382;5.260;2023-06-19T07:48:46;101274.16;;;23.20;100.00
44765;BME280;30484;52.382;5.260;2023-06-19T07:51:20;101268.53;;;23.59;100.00
44765;BME280;30484;52.382;5.260;2023-06-19T07:53:51;101280.09;;;22.96;100.00
44765;BME280;30484;52.382;5.260;2023-06-19T07:56:24;101281.13;;;23.60;100.00
44765;BME280;30484;52.382;5.260;2023-06-19T07:58:58;101286.56;;;23.42;100.00
44765;BME280;30484;52.382;5.260;2023-06-19T08:01:32;101282.72;;;23.63;100.00
44765;BME280;30484;52.382;5.260;2023-06-19T08:04:06;101289.28;;;23.42;100.00
44765;BME280;30484;52.382;5.260;2023-06-19T08:06:39;101304.56;;;23.53;100.00
44765;BME280;30484;52.382;5.260;2023-06-19T08:09:10;101293.94;;;23.59;100.00
44765;BME280;30484;52.382;5.260;2023-06-19T08:11:42;101299.72;;;23.09;100.00
44765;BME280;30484;52.382;5.260;2023-06-19T08:14:12;101289.13;;;23.06;100.00
44765;BME280;30484;52.382;5.260;2023-06-19T08:16:42;101289.72;;;23.65;100.00
44765;BME280;30484;52.382;5.260;2023-06-19T08:19:14;101293.50;;;23.82;100.00
44765;BME280;30484;52.382;5.260;2023-06-19T08:21:45;101298.03;;;24.19;100.00
44765;BME280;30484;52.382;5.260;2023-06-19T08:24:17;101300.72;;;24.01;100.00
44765;BME280;30484;52.382;5.260;2023-06-19T08:26:48;101294.59;;;24.17;100.00
44765;BME280;30484;52.382;5.260;2023-06-19T08:29:20;101299.97;;;24.45;100.00
44765;BME280;30484;52.382;5.260;2023-06-19T08:31:53;101302.78;;;24.17;100.00
44765;BME280;30484;52.382;5.260;2023-06-19T08:34:29;101291.84;;;24.97;100.00
44765;BME280;30484;52.382;5.260;2023-06-19T08:37:05;101303.88;;;25.05;100.00
44765;BME280;30484;52.382;5.260;2023-06-19T08:39:36;101304.41;;;25.08;100.00
44765;BME280;30484;52.382;5.260;2023-06-19T08:42:10;101309.59;;;24.93;100.00
44765;BME280;30484;52.382;5.260;2023-06-19T08:44:53;101307.47;;;25.31;100.00
44765;BME280;30484;52.382;5.260;2023-06-19T08:47:29;101313.50;;;25.86;100.00
44765;BME280;30484;52.382;5.260;2023-06-19T08:50:01;101321.56;;;25.96;100.00
44765;BME280;30484;52.382;5.260;2023-06-19T08:52:34;101322.09;;;25.57;100.00
44765;BME280;30484;52.382;5.260;2023-06-19T08:55:06;101335.53;;;25.76;100.00
44765;BME280;30484;52.382;5.260;2023-06-19T08:57:39;101341.50;;;25.72;100.00
44765;BME280;30484;52.382;5.260;2023-06-19T09:00:23;101345.69;;;26.60;100.00
44765;BME280;30484;52.382;5.260;2023-06-19T09:03:01;101344.28;;;26.39;100.00
44765;BME280;30484;52.382;5.260;2023-06-19T09:05:47;101351.50;;;26.57;100.00
44765;BME280;30484;52.382;5.260;2023-06-19T09:08:24;101349.91;;;26.29;100.00
44765;BME280;30484;52.382;5.260;2023-06-19T09:10:57;101344.66;;;26.52;100.00
44765;BME280;30484;52.382;5.260;2023-06-19T09:13:30;101349.63;;;26.98;100.00
44765;BME280;30484;52.382;5.260;2023-06-19T09:16:07;101347.47;;;26.18;100.00
44765;BME280;30484;52.382;5.260;2023-06-19T09:18:46;101345.09;;;26.07;100.00
44765;BME280;30484;52.382;5.260;2023-06-19T09:21:22;101347.69;;;26.25;100.00
44765;BME280;30484;52.382;5.260;2023-06-19T09:23:55;101341.75;;;26.62;100.00
44765;BME280;30484;52.382;5.260;2023-06-19T09:26:31;101345.66;;;26.27;100.00
44765;BME280;30484;52.382;5.260;2023-06-19T09:29:14;101345.16;;;26.40;100.00
44765;BME280;30484;52.382;5.260;2023-06-19T09:31:48;101352.13;;;26.17;100.00
44765;BME280;30484;52.382;5.260;2023-06-19T09:34:25;101356.09;;;26.48;100.00
44765;BME280;30484;52.382;5.260;2023-06-19T09:37:02;101358.78;;;26.15;100.00
44765;BME280;30484;52.382;5.260;2023-06-19T09:39:35;101365.00;;;26.42;100.00
44765;BME280;30484;52.382;5.260;2023-06-19T09:42:12;101370.81;;;26.30;100.00
44765;BME280;30484;52.382;5.260;2023-06-19T09:44:52;101376.00;;;26.58;100.00
44765;BME280;30484;52.382;5.260;2023-06-19T09:47:31;101375.19;;;26.74;100.00
44765;BME280;30484;52.382;5.260;2023-06-19T09:50:26;101378.44;;;27.02;100.00
44765;BME280;30484;52.382;5.260;2023-06-19T09:53:04;101387.22;;;26.14;100.00
44765;BME280;30484;52.382;5.260;2023-06-19T09:55:39;101392.38;;;26.25;100.00
44765;BME280;30484;52.382;5.260;2023-06-19T09:58:21;101391.56;;;25.98;100.00
44765;BME280;30484;52.382;5.260;2023-06-19T10:01:11;101402.13;;;26.20;100.00
44765;BME280;30484;52.382;5.260;2023-06-19T10:04:07;101398.13;;;25.71;100.00
44765;BME280;30484;52.382;5.260;2023-06-19T10:06:53;101405.34;;;26.07;100.00
44765;BME280;30484;52.382;5.260;2023-06-19T10:09:33;101406.75;;;26.27;100.00
44765;BME280;30484;52.382;5.260;2023-06-19T10:12:12;101411.09;;;26.63;100.00
44765;BME280;30484;52.382;5.260;2023-06-19T10:14:49;101406.88;;;27.01;100.00
44765;BME280;30484;52.382;5.260;2023-06-19T10:17:19;101398.75;;;26.59;100.00
44765;BME280;30484;52.382;5.260;2023-06-19T10:19:52;101408.59;;;27.11;100.00
44765;BME280;30484;52.382;5.260;2023-06-19T10:22:22;101408.91;;;26.75;100.00
44765;BME280;30484;52.382;5.260;2023-06-19T10:24:54;101407.94;;;27.81;100.00
44765;BME280;30484;52.382;5.260;2023-06-19T10:27:26;101418.44;;;28.17;100.00
44765;BME280;30484;52.382;5.260;2023-06-19T10:29:59;101403.66;;;27.79;100.00
44765;BME280;30484;52.382;5.260;2023-06-19T10:32:43;101405.47;;;28.34;100.00
44765;BME280;30484;52.382;5.260;2023-06-19T10:35:18;101404.22;;;28.14;100.00
44765;BME280;30484;52.382;5.260;2023-06-19T10:37:55;101399.09;;;28.11;100.00
44765;BME280;30484;52.382;5.260;2023-06-19T10:40:31;101418.38;;;28.57;100.00
44765;BME280;30484;52.382;5.260;2023-06-19T10:43:04;101397.38;;;28.10;100.00
44765;BME280;30484;52.382;5.260;2023-06-19T10:45:38;101398.09;;;29.04;100.00
44765;BME280;30484;52.382;5.260;2023-06-19T10:48:09;101400.66;;;29.44;100.00
44765;BME280;30484;52.382;5.260;2023-06-19T10:50:42;101397.22;;;29.27;100.00
44765;BME280;30484;52.382;5.260;2023-06-19T10:53:26;101405.69;;;29.55;100.00
44765;BME280;30484;52.382;5.260;2023-06-19T10:56:03;101394.25;;;29.14;100.00
44765;BME280;30484;52.382;5.260;2023-06-19T10:58:35;101401.28;;;28.93;100.00
44765;BME280;30484;52.382;5.260;2023-06-19T11:01:04;101395.34;;;29.27;100.00
44765;BME280;30484;52.382;5.260;2023-06-19T11:03:34;101384.13;;;28.91;100.00
44765;BME280;30484;52.382;5.260;2023-06-19T11:06:07;101400.19;;;29.02;100.00
44765;BME280;30484;52.382;5.260;2023-06-19T11:08:36;101390.41;;;29.83;100.00
44765;BME280;30484;52.382;5.260;2023-06-19T11:11:12;101388.41;;;29.76;100.00
44765;BME280;30484;52.382;5.260;2023-06-19T11:13:48;101386.63;;;29.99;100.00
44765;BME280;30484;52.382;5.260;2023-06-19T11:16:21;101398.09;;;30.02;100.00
44765;BME280;30484;52.382;5.260;2023-06-19T11:18:58;101386.69;;;30.78;100.00
44765;BME280;30484;52.382;5.260;2023-06-19T11:21:37;101382.41;;;30.39;100.00
44765;BME280;30484;52.382;5.260;2023-06-19T11:24:25;101383.88;;;31.00;100.00
44765;BME280;30484;52.382;5.260;2023-06-19T11:27:13;101390.81;;;30.31;100.00
44765;BME280;30484;52.382;5.260;2023-06-19T11:29:45;101395.53;;;30.52;100.00
44765;BME280;30484;52.382;5.260;2023-06-19T11:32:18;101392.44;;;30.84;100.00
44765;BME280;30484;52.382;5.260;2023-06-19T11:34:54;101387.19;;;30.89;100.00
44765;BME280;30484;52.382;5.260;2023-06-19T11:37:29;101382.16;;;30.99;100.00
44765;BME280;30484;52.382;5.260;2023-06-19T11:39:58;101382.97;;;30.71;100.00
44765;BME280;30484;52.382;5.260;2023-06-19T11:42:31;101389.25;;;31.30;100.00
44765;BME280;30484;52.382;5.260;2023-06-19T11:45:09;101380.63;;;31.11;100.00
44765;BME280;30484;52.382;5.260;2023-06-19T11:47:55;101394.91;;;31.92;100.00
44765;BME280;30484;52.382;5.260;2023-06-19T11:50:39;101397.03;;;31.55;100.00
44765;BME280;30484;52.382;5.260;2023-06-19T11:53:10;101402.50;;;31.48;100.00
44765;BME280;30484;52.382;5.260;2023-06-19T11:55:41;101391.72;;;30.75;100.00
44765;BME280;30484;52.382;5.260;2023-06-19T11:58:14;101407.13;;;31.12;100.00
44765;BME280;30484;52.382;5.260;2023-06-19T12:00:45;101394.91;;;31.22;100.00
44765;BME280;30484;52.382;5.260;2023-06-19T12:03:17;101409.34;;;31.24;100.00
44765;BME280;30484;52.382;5.260;2023-06-19T12:05:47;101402.22;;;31.36;100.00
44765;BME280;30484;52.382;5.260;2023-06-19T12:08:19;101411.66;;;31.48;100.00
44765;BME280;30484;52.382;5.260;2023-06-19T12:10:57;101400.50;;;30.85;100.00
44765;BME280;30484;52.382;5.260;2023-06-19T12:13:30;101411.06;;;31.25;100.00
44765;BME280;30484;52.382;5.260;2023-06-19T12:16:07;101409.13;;;31.25;100.00
44765;BME280;30484;52.382;5.260;2023-06-19T12:18:39;101407.56;;;30.66;100.00
44765;BME280;30484;52.382;5.260;2023-06-19T12:21:14;101415.53;;;30.83;100.00
44765;BME280;30484;52.382;5.260;2023-06-19T12:24:05;101413.38;;;30.78;100.00
44765;BME280;30484;52.382;5.260;2023-06-19T12:26:39;101409.66;;;30.86;100.00
44765;BME280;30484;52.382;5.260;2023-06-19T12:29:11;101417.66;;;30.80;100.00
44765;BME280;30484;52.382;5.260;2023-06-19T12:31:43;101408.53;;;30.80;100.00
44765;BME280;30484;52.382;5.260;2023-06-19T12:34:12;101410.72;;;31.70;100.00
44765;BME280;30484;52.382;5.260;2023-06-19T12:36:48;101410.06;;;31.04;100.00
44765;BME280;30484;52.382;5.260;2023-06-19T12:39:19;101401.31;;;31.29;100.00
44765;BME280;30484;52.382;5.260;2023-06-19T12:41:51;101412.84;;;31.39;100.00
44765;BME280;30484;52.382;5.260;2023-06-19T12:44:24;101424.19;;;31.79;100.00
44765;BME280;30484;52.382;5.260;2023-06-19T12:46:56;101409.47;;;31.37;100.00
44765;BME280;30484;52.382;5.260;2023-06-19T12:49:28;101419.16;;;31.90;100.00
44765;BME280;30484;52.382;5.260;2023-06-19T12:51:58;101415.56;;;31.61;100.00
44765;BME280;30484;52.382;5.260;2023-06-19T12:54:29;101415.56;;;31.96;100.00
44765;BME280;30484;52.382;5.260;2023-06-19T12:57:00;101431.16;;;31.69;100.00
44765;BME280;30484;52.382;5.260;2023-06-19T12:59:34;101423.44;;;31.99;100.00
44765;BME280;30484;52.382;5.260;2023-06-19T13:02:09;101430.47;;;31.60;100.00
44765;BME280;30484;52.382;5.260;2023-06-19T13:04:43;101432.59;;;31.36;100.00
44765;BME280;30484;52.382;5.260;2023-06-19T13:07:13;101425.28;;;31.57;100.00
44765;BME280;30484;52.382;5.260;2023-06-19T13:09:43;101433.59;;;31.28;100.00
44765;BME280;30484;52.382;5.260;2023-06-19T13:12:19;101432.47;;;31.79;100.00
44765;BME280;30484;52.382;5.260;2023-06-19T13:14:54;101428.94;;;32.34;100.00
44765;BME280;30484;52.382;5.260;2023-06-19T13:17:28;101429.94;;;33.08;100.00
44765;BME280;30484;52.382;5.260;2023-06-19T13:20:01;101429.94;;;32.20;100.00